createdAt,value
2022-08-22T00:01:20.243Z,65.66
2022-08-22T00:02:41.797Z,36.82
2022-08-22T00:02:46.808Z,58.49
2022-08-22T00:02:57.375Z,61.21
2022-08-22T00:02:59.383Z,62.94
2022-08-22T00:04:12.217Z,69.11
2022-08-22T00:07:09.088Z,66.81
2022-08-22T00:10:05.996Z,69.43
2022-08-22T00:12:58.160Z,65.62
2022-08-22T00:16:23.374Z,72.31
2022-08-22T00:19:08.404Z,69.54
2022-08-22T00:22:02.237Z,69.72
2022-08-22T00:25:00.262Z,69.57
2022-08-22T00:27:44.876Z,68.73
2022-08-22T00:30:18.177Z,69.75
2022-08-22T00:32:54.914Z,70.12
2022-08-22T00:35:32.935Z,68.83
2022-08-22T00:38:12.954Z,69.77
2022-08-22T00:41:27.555Z,68.68
2022-08-22T00:44:29.222Z,69.26
2022-08-22T00:47:36.116Z,70.40
2022-08-22T00:51:06.506Z,69.51
2022-08-22T00:53:49.319Z,70.42
2022-08-22T00:56:59.566Z,70.25
2022-08-22T00:59:41.623Z,71.67
2022-08-22T01:02:33.014Z,68.67
2022-08-22T01:05:20.125Z,71.81
2022-08-22T01:08:24.445Z,70.62
2022-08-22T01:11:16.163Z,71.48
2022-08-22T01:14:34.399Z,72.59
2022-08-22T01:17:27.272Z,71.65
2022-08-22T01:20:44.555Z,74.02
2022-08-22T01:23:48.718Z,75.04
2022-08-22T01:26:36.921Z,70.68
2022-08-22T01:29:44.873Z,72.14
2022-08-22T01:32:31.077Z,73.91
2022-08-22T01:35:25.566Z,75.75
2022-08-22T01:43:09.401Z,80.78
2022-08-22T01:46:06.964Z,79.43
2022-08-22T01:48:45.959Z,77.34
2022-08-22T01:51:47.980Z,78.23
2022-08-22T01:54:41.528Z,75.28
2022-08-22T01:57:34.656Z,73.70
2022-08-22T02:00:08.457Z,77.34
2022-08-22T02:03:03.538Z,77.59
2022-08-22T02:05:40.212Z,77.47
2022-08-22T02:08:45.442Z,76.79
2022-08-22T02:11:40.771Z,71.71
2022-08-22T02:15:05.829Z,73.64
2022-08-22T02:17:46.110Z,76.98
2022-08-22T02:20:39.240Z,77.16
2022-08-22T02:23:24.944Z,77.54
2022-08-22T02:26:02.437Z,77.55
2022-08-22T02:28:56.961Z,77.61
2022-08-22T02:31:45.266Z,76.15
2022-08-22T02:34:31.124Z,78.13
2022-08-22T02:37:29.489Z,77.88
2022-08-22T02:40:31.320Z,78.82
2022-08-22T02:43:37.830Z,79.62
2022-08-22T02:46:39.893Z,80.62
2022-08-22T02:49:21.346Z,78.32
2022-08-22T02:52:05.018Z,79.12
2022-08-22T02:54:53.499Z,78.04
2022-08-22T02:57:45.534Z,78.91
2022-08-22T03:00:32.695Z,76.82
2022-08-22T03:03:26.537Z,76.67
2022-08-22T03:06:02.847Z,78.08
2022-08-22T03:09:02.673Z,78.27
2022-08-22T03:11:39.134Z,80.72
2022-08-22T03:14:21.318Z,80.96
2022-08-22T03:17:08.704Z,79.39
2022-08-22T03:20:32.867Z,77.75
2022-08-22T03:23:13.975Z,78.26
2022-08-22T03:25:57.057Z,79.03
2022-08-22T03:29:20.701Z,81.07
2022-08-22T03:32:19.609Z,78.56
2022-08-22T03:35:04.073Z,76.50
2022-08-22T03:38:28.056Z,79.45
2022-08-22T03:41:29.403Z,78.19
2022-08-22T03:44:54.138Z,79.44
2022-08-22T03:47:34.223Z,78.34
2022-08-22T03:50:57.751Z,79.46
2022-08-22T03:53:41.436Z,79.21
2022-08-22T03:56:37.752Z,77.92
2022-08-22T03:59:36.580Z,80.46
2022-08-22T04:02:43.039Z,81.43
2022-08-22T04:05:35.628Z,78.45
2022-08-22T04:09:00.147Z,76.72
2022-08-22T04:12:24.268Z,81.20
2022-08-22T04:15:48.023Z,83.08
2022-08-22T04:18:35.096Z,82.23
2022-08-22T04:21:14.209Z,82.26
2022-08-22T04:24:25.797Z,80.02
2022-08-22T04:27:00.154Z,78.63
2022-08-22T04:29:39.426Z,75.17
2022-08-22T04:32:17.579Z,75.97
2022-08-22T04:35:01.213Z,79.12
2022-08-22T04:37:28.148Z,81.52
2022-08-22T04:40:22.450Z,81.55
2022-08-22T04:43:06.056Z,82.07
2022-08-22T04:45:37.318Z,82.01
2022-08-22T04:48:23.977Z,79.94
2022-08-22T04:51:03.175Z,69.46
2022-08-22T04:53:56.330Z,76.20
2022-08-22T04:56:45.640Z,77.30
2022-08-22T04:59:18.704Z,76.57
2022-08-22T05:02:06.634Z,79.38
2022-08-22T05:04:50.660Z,78.44
2022-08-22T05:07:35.993Z,78.89
2022-08-22T05:10:12.966Z,77.78
2022-08-22T05:12:45.058Z,78.76
2022-08-22T05:15:23.254Z,81.34
2022-08-22T05:17:57.232Z,76.50
2022-08-22T05:20:27.735Z,78.69
2022-08-22T05:23:06.101Z,77.19
2022-08-22T05:25:47.187Z,78.48
2022-08-22T05:28:38.345Z,78.64
2022-08-22T05:31:11.747Z,79.41
2022-08-22T05:33:48.427Z,79.39
2022-08-22T05:36:25.744Z,79.63
2022-08-22T05:39:21.765Z,79.30
2022-08-22T05:41:59.128Z,79.01
2022-08-22T05:44:34.999Z,78.53
2022-08-22T05:47:18.897Z,80.79
2022-08-22T05:50:43.224Z,79.77
2022-08-22T05:53:22.323Z,79.40
2022-08-22T05:56:45.797Z,77.73
2022-08-22T05:59:33.955Z,78.82
2022-08-22T06:02:57.446Z,77.95
2022-08-22T06:06:21.197Z,76.43
2022-08-22T06:09:45.019Z,74.65
2022-08-22T06:13:11.417Z,71.74
2022-08-22T06:15:51.841Z,72.47
2022-08-22T06:18:26.036Z,71.08
2022-08-22T06:20:57.288Z,69.81
2022-08-22T06:23:36.779Z,71.79
2022-08-22T06:27:00.181Z,72.29
2022-08-22T06:29:37.680Z,74.93
2022-08-22T06:33:01.658Z,73.21
2022-08-22T06:35:56.268Z,71.72
2022-08-22T06:39:20.266Z,68.08
2022-08-22T06:42:00.090Z,70.01
2022-08-22T06:45:23.775Z,68.31
2022-08-22T06:48:46.964Z,68.13
2022-08-22T06:51:17.633Z,64.64
2022-08-22T06:53:50.466Z,66.21
2022-08-22T06:56:24.064Z,65.77
2022-08-22T06:58:57.848Z,65.23
2022-08-22T07:01:37.868Z,64.05
2022-08-22T07:04:08.171Z,63.97
2022-08-22T07:06:39.414Z,63.73
2022-08-22T07:09:07.636Z,64.33
2022-08-22T07:11:39.777Z,63.05
2022-08-22T07:14:11.625Z,62.29
2022-08-22T07:16:59.226Z,61.22
2022-08-22T07:19:33.432Z,58.91
2022-08-22T07:22:14.259Z,59.39
2022-08-22T07:24:56.932Z,58.54
2022-08-22T07:28:07.502Z,58.20
2022-08-22T07:31:10.355Z,57.20
2022-08-22T07:33:50.711Z,57.33
2022-08-22T07:37:14.089Z,57.37
2022-08-22T07:40:37.840Z,56.89
2022-08-22T07:43:28.821Z,56.86
2022-08-22T07:46:52.510Z,55.55
2022-08-22T07:50:16.501Z,56.04
2022-08-22T07:53:40.006Z,56.11
2022-08-22T07:56:46.373Z,55.12
2022-08-22T08:00:11.098Z,55.39
2022-08-22T08:03:35.494Z,54.89
2022-08-22T08:06:59.176Z,55.22
2022-08-22T08:10:23.990Z,55.49
2022-08-22T08:13:47.909Z,55.35
2022-08-22T08:17:11.962Z,55.07
2022-08-22T08:20:36.048Z,55.27
2022-08-22T08:24:00.635Z,54.66
2022-08-22T08:27:43.374Z,54.96
2022-08-22T08:31:07.545Z,53.92
2022-08-22T08:34:32.426Z,53.83
2022-08-22T08:37:15.437Z,53.10
2022-08-22T08:40:39.167Z,52.98
2022-08-22T08:44:03.195Z,51.02
2022-08-22T08:47:26.659Z,50.45
2022-08-22T08:50:50.162Z,50.72
2022-08-22T08:54:15.646Z,49.48
2022-08-22T08:57:20.130Z,49.85
2022-08-22T09:00:08.111Z,50.76
2022-08-22T09:03:10.123Z,49.54
2022-08-22T09:06:00.944Z,50.22
2022-08-22T09:08:45.682Z,49.65
2022-08-22T09:12:01.475Z,50.10
2022-08-22T09:14:49.957Z,48.77
2022-08-22T09:17:47.089Z,47.85
2022-08-22T09:20:30.521Z,48.60
2022-08-22T09:23:23.575Z,47.30
2022-08-22T09:25:59.647Z,46.89
2022-08-22T09:28:40.051Z,46.40
2022-08-22T09:31:47.439Z,46.16
2022-08-22T09:35:09.249Z,45.63
2022-08-22T09:38:33.412Z,44.23
2022-08-22T09:41:14.377Z,43.69
2022-08-22T09:44:39.638Z,43.62
2022-08-22T09:48:07.511Z,43.04
2022-08-22T09:51:28.629Z,42.05
2022-08-22T09:54:49.165Z,43.41
2022-08-22T09:58:13.754Z,41.98
2022-08-22T10:00:57.315Z,41.99
2022-08-22T10:04:21.408Z,41.32
2022-08-22T10:07:45.094Z,41.46
2022-08-22T10:11:19.502Z,42.28
2022-08-22T10:14:01.674Z,41.48
2022-08-22T10:17:25.559Z,41.73
2022-08-22T10:20:24.963Z,40.59
2022-08-22T10:23:51.148Z,39.73
2022-08-22T10:27:15.041Z,38.06
2022-08-22T10:30:38.291Z,38.53
2022-08-22T10:34:02.061Z,36.92
2022-08-22T10:36:48.271Z,38.46
2022-08-22T10:39:24.656Z,38.80
2022-08-22T10:42:06.976Z,38.20
2022-08-22T10:45:23.467Z,36.89
2022-08-22T10:47:54.416Z,37.27
2022-08-22T10:51:46.029Z,100.00
2022-08-22T10:55:40.403Z,100.00
2022-08-22T10:58:15.091Z,34.97
2022-08-22T11:01:38.594Z,35.15
2022-08-22T11:04:48.039Z,32.85
2022-08-22T11:08:14.213Z,32.12
2022-08-22T11:11:38.053Z,31.37
2022-08-22T11:15:02.965Z,32.07
2022-08-22T11:18:27.158Z,31.22
2022-08-22T11:21:53.932Z,32.33
2022-08-22T11:25:29.221Z,31.95
2022-08-22T11:29:11.285Z,31.22
2022-08-22T11:32:37.525Z,31.23
2022-08-22T11:36:04.457Z,30.29
2022-08-22T11:39:28.635Z,29.29
2022-08-22T11:42:52.260Z,29.50
2022-08-22T11:46:19.850Z,30.39
2022-08-22T11:49:43.606Z,29.96
2022-08-22T11:53:07.705Z,30.14
2022-08-22T11:56:31.929Z,28.91
2022-08-22T11:59:55.881Z,28.07
2022-08-22T12:03:23.101Z,27.39
2022-08-22T12:05:57.261Z,27.37
2022-08-22T12:08:51.294Z,25.90
2022-08-22T12:11:35.078Z,25.53
2022-08-22T12:14:18.168Z,25.85
2022-08-22T12:17:50.847Z,25.80
2022-08-22T12:20:38.543Z,24.88
2022-08-22T12:23:48.833Z,23.52
2022-08-22T12:27:08.215Z,22.04
2022-08-22T12:29:57.184Z,21.73
2022-08-22T12:32:43.943Z,22.31
2022-08-22T12:35:30.982Z,22.30
2022-08-22T12:38:34.820Z,21.64
2022-08-22T12:41:46.797Z,20.35
2022-08-22T12:44:40.657Z,20.54
2022-08-22T12:47:37.045Z,21.46
2022-08-22T12:50:36.012Z,20.97
2022-08-22T12:53:51.261Z,19.83
2022-08-22T12:56:34.490Z,18.12
2022-08-22T12:59:26.563Z,16.83
2022-08-22T13:02:00.734Z,16.03
2022-08-22T13:04:34.215Z,17.11
2022-08-22T13:07:25.723Z,19.33
2022-08-22T13:10:30.981Z,17.17
2022-08-22T13:13:00.038Z,16.69
2022-08-22T13:15:43.048Z,15.30
2022-08-22T13:18:31.146Z,16.41
2022-08-22T13:21:05.148Z,16.49
2022-08-22T13:23:39.885Z,16.08
2022-08-22T13:26:31.838Z,15.18
2022-08-22T13:29:25.063Z,15.80
2022-08-22T13:32:02.102Z,16.06
2022-08-22T13:34:43.713Z,15.70
2022-08-22T13:37:20.255Z,14.62
2022-08-22T13:39:57.813Z,13.96
2022-08-22T13:42:30.877Z,13.09
2022-08-22T13:45:05.423Z,14.58
2022-08-22T13:47:39.334Z,14.92
2022-08-22T13:50:10.238Z,14.64
2022-08-22T13:53:07.204Z,15.81
2022-08-22T13:55:48.966Z,14.58
2022-08-22T13:58:35.266Z,15.34
2022-08-22T14:01:37.781Z,14.86
2022-08-22T14:04:32.095Z,14.02
2022-08-22T14:07:03.716Z,13.60
2022-08-22T14:09:58.425Z,14.04
2022-08-22T14:12:33.407Z,13.97
2022-08-22T14:15:24.239Z,13.79
2022-08-22T14:18:01.268Z,13.53
2022-08-22T14:20:33.999Z,12.74
2022-08-22T14:23:10.354Z,12.62
2022-08-22T14:25:41.351Z,12.96
2022-08-22T14:28:27.457Z,13.52
2022-08-22T14:31:13.501Z,13.50
2022-08-22T14:33:58.241Z,13.12
2022-08-22T14:37:12.911Z,12.46
2022-08-22T14:39:49.915Z,12.39
2022-08-22T14:42:44.411Z,13.95
2022-08-22T14:45:18.034Z,13.97
2022-08-22T14:48:29.222Z,13.90
2022-08-22T14:51:04.175Z,13.44
2022-08-22T14:54:28.877Z,13.89
2022-08-22T14:56:57.739Z,13.47
2022-08-22T14:59:37.091Z,12.55
2022-08-22T15:02:23.747Z,14.14
2022-08-22T15:05:48.630Z,14.03
2022-08-22T15:08:28.453Z,14.04
2022-08-22T15:11:23.246Z,13.09
2022-08-22T15:14:07.788Z,13.13
2022-08-22T15:16:55.415Z,15.79
2022-08-22T15:20:25.933Z,17.63
2022-08-22T15:23:01.891Z,19.32
2022-08-22T15:26:25.908Z,21.86
2022-08-22T15:29:49.478Z,22.36
2022-08-22T15:32:22.935Z,22.51
2022-08-22T15:35:06.204Z,22.82
2022-08-22T15:37:55.717Z,23.20
2022-08-22T15:41:19.300Z,24.91
2022-08-22T15:43:54.171Z,23.26
2022-08-22T15:47:24.142Z,20.48
2022-08-22T15:50:51.638Z,21.84
2022-08-22T15:53:33.719Z,19.55
2022-08-22T15:56:07.127Z,18.56
2022-08-22T15:58:37.258Z,17.41
2022-08-22T16:01:24.486Z,16.96
2022-08-22T16:04:00.182Z,17.97
2022-08-22T16:06:54.551Z,18.94
2022-08-22T16:09:44.723Z,18.54
2022-08-22T16:12:45.787Z,19.48
2022-08-22T16:15:48.640Z,20.21
2022-08-22T16:18:39.722Z,20.77
2022-08-22T16:21:22.956Z,20.87
2022-08-22T16:23:49.918Z,22.71
2022-08-22T16:26:29.267Z,22.40
2022-08-22T16:28:59.325Z,22.97
2022-08-22T16:31:32.589Z,24.07
2022-08-22T16:34:38.288Z,25.68
2022-08-22T16:37:08.306Z,25.55
2022-08-22T16:39:47.100Z,26.85
2022-08-22T16:42:14.328Z,25.76
2022-08-22T16:44:50.685Z,26.69
2022-08-22T16:47:42.450Z,26.42
2022-08-22T16:50:15.536Z,26.53
2022-08-22T16:52:54.915Z,27.97
2022-08-22T16:55:31.037Z,26.43
2022-08-22T16:58:06.829Z,27.02
2022-08-22T17:00:58.553Z,27.70
2022-08-22T17:04:01.612Z,28.13
2022-08-22T17:07:14.467Z,26.43
2022-08-22T17:10:38.866Z,27.27
2022-08-22T17:13:26.482Z,26.77
2022-08-22T17:16:16.131Z,27.57
2022-08-22T17:19:40.182Z,27.59
2022-08-22T17:22:17.618Z,27.45
2022-08-22T17:25:41.066Z,27.66
2022-08-22T17:28:57.077Z,28.04
2022-08-22T17:32:20.692Z,28.09
2022-08-22T17:35:21.041Z,28.95
2022-08-22T17:38:45.356Z,28.99
2022-08-22T17:42:09.148Z,29.53
2022-08-22T17:45:07.484Z,30.57
2022-08-22T17:48:31.356Z,30.22
2022-08-22T17:51:58.111Z,30.67
2022-08-22T17:54:48.583Z,31.56
2022-08-22T17:57:33.617Z,32.53
2022-08-22T18:00:11.363Z,32.02
2022-08-22T18:02:54.933Z,31.47
2022-08-22T18:06:18.522Z,32.24
2022-08-22T18:09:15.226Z,31.97
2022-08-22T18:12:06.754Z,32.14
2022-08-22T18:15:04.799Z,33.35
2022-08-22T18:17:41.284Z,33.66
2022-08-22T18:20:17.097Z,33.77
2022-08-22T18:23:36.014Z,34.05
2022-08-22T18:27:04.192Z,34.14
2022-08-22T18:30:27.947Z,34.81
2022-08-22T18:33:51.364Z,34.36
2022-08-22T18:37:17.057Z,34.62
2022-08-22T18:40:50.099Z,35.62
2022-08-22T18:44:14.179Z,35.43
2022-08-22T18:47:38.026Z,35.46
2022-08-22T18:51:02.299Z,36.17
2022-08-22T18:54:26.300Z,38.51
2022-08-22T18:57:49.859Z,39.76
2022-08-22T19:01:15.354Z,39.67
2022-08-22T19:04:40.238Z,38.75
2022-08-22T19:08:04.076Z,39.64
2022-08-22T19:11:35.121Z,40.32
2022-08-22T19:15:00.634Z,40.35
2022-08-22T19:18:24.380Z,40.41
2022-08-22T19:22:06.633Z,40.81
2022-08-22T19:25:26.125Z,41.65
2022-08-22T19:28:11.451Z,41.46
2022-08-22T19:30:52.823Z,41.65
2022-08-22T19:33:41.558Z,41.83
2022-08-22T19:36:29.840Z,41.85
2022-08-22T19:39:08.899Z,42.80
2022-08-22T19:41:39.227Z,42.83
2022-08-22T19:44:21.414Z,43.24
2022-08-22T19:47:24.190Z,43.45
2022-08-22T19:49:51.306Z,43.85
2022-08-22T19:52:55.377Z,43.91
2022-08-22T19:55:37.443Z,44.05
2022-08-22T19:58:45.458Z,43.90
2022-08-22T20:01:43.793Z,45.09
2022-08-22T20:05:17.539Z,45.78
2022-08-22T20:08:14.382Z,46.61
2022-08-22T20:11:11.250Z,46.78
2022-08-22T20:13:38.961Z,47.54
2022-08-22T20:17:12.714Z,47.72
2022-08-22T20:22:47.132Z,48.86
2022-08-22T20:25:42.514Z,48.21
2022-08-22T20:28:23.737Z,48.64
2022-08-22T20:31:47.466Z,48.22
2022-08-22T20:34:26.464Z,49.24
2022-08-22T20:37:15.777Z,50.16
2022-08-22T20:40:53.564Z,50.31
2022-08-22T20:44:05.713Z,49.80
2022-08-22T20:47:36.227Z,50.71
2022-08-22T20:50:11.847Z,50.09
2022-08-22T20:53:35.038Z,50.74
2022-08-22T20:56:03.330Z,50.75
2022-08-22T20:59:27.714Z,50.38
2022-08-22T21:02:11.277Z,50.62
2022-08-22T21:05:07.984Z,51.30
2022-08-22T21:07:39.866Z,51.03
2022-08-22T21:11:22.803Z,51.43
2022-08-22T21:14:46.706Z,52.34
2022-08-22T21:18:10.326Z,52.48
2022-08-22T21:20:39.640Z,52.61
2022-08-22T21:23:15.404Z,53.36
2022-08-22T21:26:03.807Z,53.61
2022-08-22T21:28:37.167Z,53.21
2022-08-22T21:31:19.923Z,52.78
2022-08-22T21:33:50.215Z,53.23
2022-08-22T21:36:22.340Z,54.17
2022-08-22T21:38:58.051Z,52.96
2022-08-22T21:41:42.533Z,53.37
2022-08-22T21:44:28.080Z,53.80
2022-08-22T21:46:57.705Z,53.87
2022-08-22T21:49:29.669Z,53.81
2022-08-22T21:51:56.699Z,54.55
2022-08-22T21:54:29.581Z,55.10
2022-08-22T21:57:15.252Z,55.41
2022-08-22T21:59:52.233Z,55.10
2022-08-22T22:02:37.134Z,55.22
2022-08-22T22:05:16.280Z,55.93
2022-08-22T22:07:49.561Z,55.04
2022-08-22T22:10:20.630Z,56.69
2022-08-22T22:12:52.008Z,56.83
2022-08-22T22:15:24.663Z,56.98
2022-08-22T22:17:52.676Z,58.56
2022-08-22T22:20:23.842Z,56.81
2022-08-22T22:22:50.951Z,56.87
2022-08-22T22:25:40.825Z,57.09
2022-08-22T22:28:17.538Z,57.06
2022-08-22T22:30:50.349Z,57.00
2022-08-22T22:33:20.095Z,57.27
2022-08-22T22:36:24.020Z,58.99
2022-08-22T22:38:52.007Z,58.07
2022-08-22T22:41:23.252Z,59.13
2022-08-22T22:43:50.534Z,55.93
2022-08-22T22:46:17.646Z,57.17
2022-08-22T22:48:44.969Z,56.61
2022-08-22T22:51:16.239Z,57.30
2022-08-22T22:56:36.905Z,56.14
2022-08-22T22:59:13.333Z,50.25
2022-08-22T23:02:01.982Z,56.58
2022-08-22T23:04:31.113Z,55.35
2022-08-22T23:06:58.496Z,55.61
2022-08-22T23:09:37.981Z,57.35
2022-08-22T23:12:06.702Z,54.54
2022-08-22T23:14:35.190Z,56.28
2022-08-22T23:17:03.725Z,57.55
2022-08-22T23:19:31.735Z,56.55
2022-08-22T23:22:01.064Z,57.90
2022-08-22T23:24:30.964Z,57.89
2022-08-22T23:26:59.213Z,56.23
2022-08-22T23:29:26.919Z,56.64
2022-08-22T23:32:00.691Z,57.16
2022-08-22T23:34:32.398Z,56.25
2022-08-22T23:37:02.453Z,55.37
2022-08-22T23:39:35.578Z,55.70
2022-08-22T23:42:02.826Z,57.46
2022-08-22T23:44:33.955Z,59.90
2022-08-22T23:47:02.868Z,61.02
2022-08-22T23:49:31.496Z,61.15
2022-08-22T23:51:59.399Z,60.03
2022-08-22T23:54:27.141Z,62.24
2022-08-22T23:56:57.850Z,60.99
2022-08-22T23:59:31.009Z,57.01
